Time;durP1;ratioP1;P1;durP2;ratioP2;P2;SDS_P1;SDS_P2;PMS_P1;PMS_P2;Temp;Humidity;BMP_temperature;BMP_pressure;BME280_temperature;BME280_humidity;BME280_pressure;Samples;Min_cycle;Max_cycle;Signal;HPM_P1;HPM_P2
2022/04/26 03:37:21;;;;;;;20.45;14.23;;;;;;;10.43;95.02;98343.09;5030150;28;20283;-79
2022/04/26 03:39:46;;;;;;;;;;;;;;;10.59;94.76;98365.19;4993314;28;20125;-79
2022/04/26 03:42:12;;;;;;;20.88;13.95;;;;;;;10.65;94.57;98353.78;5025712;28;20013;-81
2022/04/26 03:44:37;;;;;;;;;;;;;;;10.65;94.06;98370.22;5011384;28;20030;-82
2022/04/26 03:47:04;;;;;;;21.63;14.20;;;;;;;10.63;94.66;98350.41;5022498;28;20019;-80
2022/04/26 03:49:29;;;;;;;;;;;;;;;10.71;93.63;98369.19;5031134;28;21352;-80
2022/04/26 03:51:56;;;;;;;20.05;12.77;;;;;;;10.76;92.98;98366.47;5021152;28;19917;-78
2022/04/26 03:54:22;;;;;;;;;;;;;;;10.67;92.50;98370.16;5033762;28;20040;-79
2022/04/26 03:56:48;;;;;;;16.17;12.23;;;;;;;10.78;92.67;98380.28;5065676;28;19925;-78
2022/04/26 03:59:13;;;;;;;;;;;;;;;10.83;92.65;98368.03;5002020;28;20145;-78
2022/04/26 04:01:39;;;;;;;17.48;12.00;;;;;;;10.80;91.85;98368.97;5016337;28;19922;-79
2022/04/26 04:04:05;;;;;;;;;;;;;;;10.83;92.07;98373.22;5023044;28;20045;-77
2022/04/26 04:06:31;;;;;;;16.42;12.70;;;;;;;10.79;92.75;98358.63;5017548;28;19922;-81
2022/04/26 04:08:56;;;;;;;;;;;;;;;10.86;92.57;98370.56;5005759;28;20025;-79
2022/04/26 04:11:22;;;;;;;17.15;13.00;;;;;;;10.73;92.26;98345.84;5066483;28;19917;-81
2022/04/26 04:13:48;;;;;;;;;;;;;;;10.88;92.25;98373.97;5034252;28;20460;-83
2022/04/26 04:16:13;;;;;;;15.38;12.18;;;;;;;10.92;92.03;98375.59;5021388;28;19917;-83
2022/04/26 04:21:23;;;;;;;16.20;11.98;;;;;;;11.02;91.01;98381.38;5066169;28;19917;-78
2022/04/26 04:23:48;;;;;;;;;;;;;;;11.03;90.85;98373.53;5031716;28;20103;-80
2022/04/26 04:26:14;;;;;;;15.77;11.35;;;;;;;11.08;90.41;98379.47;5021377;28;20308;-81
2022/04/26 04:28:40;;;;;;;;;;;;;;;11.04;90.10;98375.28;5027345;28;20067;-81
2022/04/26 04:31:06;;;;;;;18.48;11.88;;;;;;;11.09;91.43;98373.41;5065473;28;19939;-78
2022/04/26 04:33:31;;;;;;;;;;;;;;;11.24;92.55;98373.88;5033754;28;20517;-78
2022/04/26 04:35:59;;;;;;;16.02;12.15;;;;;;;11.28;90.41;98371.16;5032828;28;19956;-78
2022/04/26 04:38:26;;;;;;;;;;;;;;;11.29;89.42;98369.41;5031935;28;20063;-78
2022/04/26 04:40:53;;;;;;;14.85;11.65;;;;;;;11.32;89.92;98371.94;5032639;28;20323;-80
2022/04/26 04:43:19;;;;;;;16.48;12.30;;;;;;;11.26;89.84;98351.31;5032518;28;20033;-78
2022/04/26 04:45:47;;;;;;;;;;;;;;;11.44;89.94;98369.81;5032911;28;20081;-80
2022/04/26 04:48:13;;;;;;;17.40;12.40;;;;;;;11.50;89.31;98358.44;5031488;28;19998;-77
2022/04/26 04:50:39;;;;;;;15.77;11.48;;;;;;;11.50;89.19;98366.22;5037006;28;20092;-77
2022/04/26 04:53:04;;;;;;;;;;;;;;;11.43;89.37;98367.28;5031718;28;20029;-77
2022/04/26 04:55:30;;;;;;;20.42;15.07;;;;;;;11.38;90.26;98361.38;5047630;28;19920;-79
2022/04/26 04:57:56;;;;;;;;;;;;;;;11.47;90.41;98366.28;5014978;28;20041;-79
2022/04/26 05:00:22;;;;;;;21.50;15.85;;;;;;;11.53;89.62;98368.72;5032300;28;19924;-78
2022/04/26 05:02:47;;;;;;;;;;;;;;;11.58;88.81;98364.22;5032472;28;20064;-78
2022/04/26 05:05:13;;;;;;;20.83;15.10;;;;;;;11.61;88.35;98371.09;5032249;28;19956;-77
2022/04/26 05:07:38;;;;;;;;;;;;;;;11.65;88.38;98355.38;5033180;28;20044;-78
2022/04/26 05:10:06;;;;;;;20.10;16.13;;;;;;;11.64;88.14;98358.88;5032359;28;19916;-79
2022/04/26 05:12:31;;;;;;;17.83;15.85;;;;;;;11.67;89.06;98358.78;5031298;28;20040;-78
2022/04/26 05:14:57;;;;;;;;;;;;;;;11.76;88.80;98356.81;4996826;28;20037;-78
2022/04/26 05:17:22;;;;;;;17.63;12.45;;;;;;;11.75;87.44;98342.13;5021163;28;19962;-79
2022/04/26 05:19:48;;;;;;;;;;;;;;;11.97;86.50;98358.81;5031657;28;20126;-78
2022/04/26 05:22:14;;;;;;;15.82;12.70;;;;;;;12.02;85.54;98358.66;5032813;28;20259;-78
2022/04/26 05:24:58;;;;;;;;;;;;;;;12.07;84.68;98352.41;5033849;28;20041;-78
2022/04/26 05:27:31;;;;;;;15.73;12.68;;;;;;;12.13;84.85;98344.41;5041718;28;19917;-78
2022/04/26 05:29:58;;;;;;;17.90;12.48;;;;;;;12.25;84.13;98340.59;4976379;28;20144;-77
2022/04/26 05:32:25;;;;;;;;;;;;;;;12.40;83.54;98360.03;5016140;28;20033;-78
2022/04/26 05:35:03;;;;;;;18.00;13.73;;;;;;;12.51;83.46;98351.88;5032806;28;19924;-77
2022/04/26 05:37:31;;;;;;;15.38;12.65;;;;;;;12.61;82.79;98354.16;5031279;28;20042;-78
2022/04/26 05:39:57;;;;;;;11.73;10.13;;;;;;;12.73;81.47;98347.66;5031217;28;20031;-79
2022/04/26 05:42:23;;;;;;;13.77;11.30;;;;;;;12.68;81.14;98324.41;5031549;28;20465;-79
2022/04/26 05:44:48;;;;;;;;;;;;;;;12.90;80.26;98344.50;5015661;28;20076;-79
2022/04/26 05:47:14;;;;;;;15.73;12.82;;;;;;;12.89;80.82;98335.84;5031180;28;19959;-79
2022/04/26 05:49:39;;;;;;;;;;;;;;;12.83;82.65;98348.19;5031511;28;20033;-80
2022/04/26 05:52:06;;;;;;;16.23;13.82;;;;;;;12.91;82.52;98341.84;5031461;28;19944;-78
2022/04/26 05:54:32;;;;;;;16.25;12.48;;;;;;;13.03;81.64;98339.72;5027913;28;20543;-79
2022/04/26 05:56:59;;;;;;;;;;;;;;;13.14;81.02;98348.84;5013020;28;20042;-79
2022/04/26 05:59:25;;;;;;;16.23;12.77;;;;;;;13.07;81.12;98339.56;5025424;28;20304;-80
2022/04/26 06:01:51;;;;;;;15.52;12.85;;;;;;;13.11;80.68;98346.38;5022013;28;20051;-79
2022/04/26 06:04:16;;;;;;;;;;;;;;;13.10;80.34;98342.06;5048083;28;20037;-79
2022/04/26 06:06:42;;;;;;;14.93;11.82;;;;;;;13.10;80.17;98333.38;5064402;28;19931;-81
2022/04/26 06:09:08;;;;;;;16.60;12.15;;;;;;;13.05;80.05;98338.75;5033406;28;20029;-77
2022/04/26 06:11:35;;;;;;;13.57;11.48;;;;;;;12.96;79.47;98331.25;5020335;28;20092;-80
2022/04/26 06:14:04;;;;;;;;;;;;;;;12.89;80.02;98354.06;5035667;28;20045;-79
2022/04/26 06:16:46;;;;;;;15.30;10.77;;;;;;;12.88;80.22;98352.38;5023755;28;19956;-79
2022/04/26 06:19:11;;;;;;;;;;;;;;;12.75;81.15;98355.44;5026788;28;20500;-78
2022/04/26 06:21:37;;;;;;;15.07;11.43;;;;;;;12.76;81.22;98357.97;5028308;28;19916;-78
2022/04/26 06:24:02;;;;;;;;;;;;;;;12.84;81.44;98353.38;5018571;28;20065;-80
2022/04/26 06:26:28;;;;;;;14.32;11.25;;;;;;;12.92;79.66;98364.38;5034897;28;19923;-79
2022/04/26 06:28:53;;;;;;;;;;;;;;;12.87;80.50;98365.41;5022205;28;20032;-78
2022/04/26 06:31:21;;;;;;;19.48;14.60;;;;;;;12.81;79.87;98350.88;5034102;28;19921;-82
2022/04/26 06:33:46;;;;;;;15.07;11.77;;;;;;;12.97;79.71;98367.66;5019082;28;20029;-80
2022/04/26 06:36:12;;;;;;;;;;;;;;;12.93;79.09;98373.03;5051970;28;20401;-78
2022/04/26 06:38:38;;;;;;;14.13;10.98;;;;;;;12.77;79.15;98351.03;5051802;28;19913;-80
2022/04/26 06:41:03;;;;;;;;;;;;;;;12.84;78.71;98376.78;5036096;28;20594;-80
2022/04/26 06:43:32;;;;;;;16.55;10.57;;;;;;;12.69;79.57;98378.16;5051412;28;20271;-79
2022/04/26 06:45:59;;;;;;;12.48;9.70;;;;;;;12.63;80.06;98382.69;5049461;28;20045;-81
2022/04/26 06:48:24;;;;;;;;;;;;;;;12.43;80.55;98391.16;5024359;28;20036;-80
2022/04/26 06:50:50;;;;;;;11.85;9.80;;;;;;;12.52;80.39;98380.47;5037639;28;19917;-80
2022/04/26 06:53:15;;;;;;;;;;;;;;;12.47;80.33;98390.16;5018229;28;20036;-79
2022/04/26 06:55:41;;;;;;;15.55;10.65;;;;;;;12.37;80.92;98380.94;5034671;28;19960;-80
2022/04/26 06:58:07;;;;;;;;;;;;;;;12.45;80.87;98381.53;5032395;28;20041;-80
2022/04/26 07:00:33;;;;;;;12.75;11.00;;;;;;;12.39;81.62;98376.56;5040057;28;20311;-81
2022/04/26 07:02:59;;;;;;;12.98;10.18;;;;;;;12.47;81.11;98387.56;4986950;28;20057;-78
2022/04/26 07:05:24;;;;;;;;;;;;;;;12.39;82.11;98384.34;5035370;28;20053;-80
2022/04/26 07:07:52;;;;;;;20.63;17.77;;;;;;;12.41;81.48;98374.75;5023743;28;20000;-81
2022/04/26 07:10:18;;;;;;;16.13;11.82;;;;;;;12.51;81.01;98375.28;4999588;28;20128;-80
2022/04/26 07:12:43;;;;;;;;;;;;;;;12.53;81.22;98383.91;5034702;28;20171;-79
2022/04/26 07:15:09;;;;;;;16.80;12.52;;;;;;;12.51;80.97;98383.97;5043821;28;19922;-80
2022/04/26 07:17:37;;;;;;;;;;;;;;;12.48;81.03;98383.22;5014697;28;20484;-80
2022/04/26 07:20:04;;;;;;;13.95;10.35;;;;;;;12.40;81.06;98373.03;5050153;28;19917;-78
2022/04/26 07:22:31;;;;;;;14.25;10.23;;;;;;;12.52;81.17;98385.66;5034636;28;20451;-78
2022/04/26 07:24:57;;;;;;;13.18;10.80;;;;;;;12.57;81.08;98382.91;5035494;28;20154;-79
2022/04/26 07:27:26;;;;;;;13.52;10.68;;;;;;;12.56;81.07;98392.47;5018272;28;20025;-90
2022/04/26 07:52:37;;;;;;;15.70;10.60;;;;;;;12.33;81.39;98363.75;5536243;23;20109;-89
2022/04/26 15:37:57;;;;;;;10.65;5.70;;;;;;;15.42;65.02;98388.56;5522021;24;20483;31
2022/04/26 16:05:25;;;;;;;10.98;3.30;;;;;;;16.15;61.75;98427.09;5877462;24;20075;31
2022/04/26 16:07:53;;;;;;;12.18;4.15;;;;;;;16.06;63.04;98400.53;5163336;24;20118;-84
2022/04/26 16:22:00;;;;;;;6.35;3.28;;;;;;;15.48;62.12;98427.47;4826232;29;20057;-86
2022/04/26 16:24:26;;;;;;;8.85;3.33;;;;;;;15.44;63.35;98433.75;4821649;29;20057;-86
2022/04/26 16:26:57;;;;;;;5.30;3.30;;;;;;;15.26;63.99;98419.75;4808236;29;20048;-87
2022/04/26 16:29:25;;;;;;;4.20;3.45;;;;;;;15.18;64.27;98422.69;4825813;29;20051;-86
2022/04/26 16:31:51;;;;;;;4.85;3.13;;;;;;;15.19;65.07;98442.66;4801629;29;20104;-88
2022/04/26 16:34:18;;;;;;;8.07;3.70;;;;;;;15.34;65.38;98445.53;4812730;29;20046;-88
2022/04/26 16:36:45;;;;;;;5.72;3.80;;;;;;;15.37;64.65;98441.03;4813733;29;20035;-87
2022/04/26 16:39:16;;;;;;;8.27;3.97;;;;;;;15.48;64.55;98457.06;4814439;29;20043;-88
2022/04/26 16:42:12;;;;;;;7.07;4.53;;;;;;;15.40;64.08;98443.53;4825230;29;20096;-86
2022/04/26 16:45:13;;;;;;;5.03;3.50;;;;;;;15.50;63.96;98463.09;4832356;29;20037;-87
2022/04/26 16:47:40;;;;;;;9.95;4.63;;;;;;;15.39;64.70;98461.84;4802018;29;20084;-87
2022/04/26 16:50:08;;;;;;;5.68;3.30;;;;;;;14.93;65.38;98408.94;4817033;29;20023;-88
2022/04/26 17:03:32;;;;;;;7.85;4.10;;;;;;;14.98;65.34;98453.97;5071065;24;20058;-88
2022/04/26 17:06:18;;;;;;;6.68;3.67;;;;;;;14.91;66.06;98460.38;4818771;29;20073;-88
2022/04/26 17:08:48;;;;;;;7.10;3.67;;;;;;;14.88;66.23;98447.44;4828512;29;20057;-86
2022/04/26 17:25:16;;;;;;;6.93;4.45;;;;;;;15.40;65.37;98513.22;5721504;24;20151;-87
2022/04/26 17:27:44;;;;;;;8.15;3.83;;;;;;;15.34;66.03;98497.78;4831985;29;20038;-89
2022/04/26 18:47:04;;;;;;;4.93;2.83;;;;;;;14.70;63.25;98525.59;5910775;23;20212;31
2022/04/26 19:14:25;;;;;;;4.88;3.63;;;;;;;14.66;63.41;98591.03;5561577;24;20025;-88
2022/04/26 20:49:25;;;;;;;5.50;3.28;;;;;;;13.51;64.22;98625.47;5789862;24;20076;31
2022/04/26 22:51:31;;;;;;;3.67;2.80;;;;;;;12.61;64.77;98671.56;5436034;24;20060;-89
2022/04/26 23:16:15;;;;;;;4.00;2.53;;;;;;;12.35;64.95;98628.03;5793384;24;20041;-84
2022/04/26 23:21:50;;;;;;;5.60;2.35;;;;;;;12.20;65.82;98629.31;5014339;24;19924;31
2022/04/26 23:30:21;;;;;;;2.83;1.90;;;;;;;12.47;65.22;98689.28;5079667;23;20081;-91
2022/04/26 23:32:48;;;;;;;;;;;;;;;12.48;65.14;98691.00;5504305;23;20048;-88
2022/04/26 23:47:49;;;;;;;4.50;2.28;;;;;;;12.27;62.86;98639.56;5354723;24;20091;-88
